Glenarden, Maryland
Current Conditions -  °F | °C
As of 5:58 PM on Saturday 25 Oct 2014 (Local Time) from KADW Reporting Station
Clear Clear  
Wind Chill: 65°   Ceiling: Unl
Heat Index: 65°   Visibility: 10mi
Dew Point: 39°   Wind: 12mph
Humidity: 38%   Direction: 200°SSW
Pressure: 29.75"   Gusts: NA
Location:  38.8741°N, 76.7678°W
Report Text: KADW 252158Z AUTO 20010KT 10SM CLR 19/04 A2975 RMK AO2 SLP081 T01860041 $
Loading
Personal Weather Stations






























Interactive Weather Map
Tropical Storm Tracking
New forecast layout! Learn more

10-Day Weather Forecast

Advertisements
Track Severe Weather on mobile